sensor_id;sensor_type;location;lat;lon;timestamp;P1;durP1;ratioP1;P2;durP2;ratioP2
30173;SDS011;16985;50.814;8.530;2023-06-22T00:00:17;8.70;;;7.60;;
30173;SDS011;16985;50.814;8.530;2023-06-22T00:02:43;10.40;;;8.10;;
30173;SDS011;16985;50.814;8.530;2023-06-22T00:05:08;8.90;;;7.45;;
30173;SDS011;16985;50.814;8.530;2023-06-22T00:07:34;11.63;;;7.65;;
30173;SDS011;16985;50.814;8.530;2023-06-22T00:10:00;11.45;;;8.77;;
30173;SDS011;16985;50.814;8.530;2023-06-22T00:12:26;8.68;;;7.88;;
30173;SDS011;16985;50.814;8.530;2023-06-22T00:14:52;11.25;;;8.40;;
30173;SDS011;16985;50.814;8.530;2023-06-22T00:17:17;14.23;;;9.20;;
30173;SDS011;16985;50.814;8.530;2023-06-22T00:19:43;11.90;;;8.88;;
30173;SDS011;16985;50.814;8.530;2023-06-22T00:22:12;9.50;;;7.95;;
30173;SDS011;16985;50.814;8.530;2023-06-22T00:24:38;9.50;;;8.50;;
30173;SDS011;16985;50.814;8.530;2023-06-22T00:27:04;9.80;;;8.80;;
30173;SDS011;16985;50.814;8.530;2023-06-22T00:29:30;10.48;;;8.27;;
30173;SDS011;16985;50.814;8.530;2023-06-22T00:31:56;12.13;;;9.10;;
30173;SDS011;16985;50.814;8.530;2023-06-22T00:34:23;8.75;;;7.95;;
30173;SDS011;16985;50.814;8.530;2023-06-22T00:36:49;13.18;;;8.48;;
30173;SDS011;16985;50.814;8.530;2023-06-22T00:39:16;9.65;;;8.48;;
30173;SDS011;16985;50.814;8.530;2023-06-22T00:41:42;8.88;;;8.02;;
30173;SDS011;16985;50.814;8.530;2023-06-22T00:44:08;9.52;;;8.60;;
30173;SDS011;16985;50.814;8.530;2023-06-22T00:46:34;11.27;;;8.07;;
30173;SDS011;16985;50.814;8.530;2023-06-22T00:49:00;12.73;;;9.10;;
30173;SDS011;16985;50.814;8.530;2023-06-22T00:51:27;14.60;;;8.80;;
30173;SDS011;16985;50.814;8.530;2023-06-22T00:54:11;11.82;;;9.50;;
30173;SDS011;16985;50.814;8.530;2023-06-22T00:56:39;10.13;;;9.10;;
30173;SDS011;16985;50.814;8.530;2023-06-22T00:59:06;10.45;;;8.38;;
30173;SDS011;16985;50.814;8.530;2023-06-22T01:01:34;9.90;;;8.90;;
30173;SDS011;16985;50.814;8.530;2023-06-22T01:04:00;11.20;;;9.32;;
30173;SDS011;16985;50.814;8.530;2023-06-22T01:06:27;11.25;;;8.98;;
30173;SDS011;16985;50.814;8.530;2023-06-22T01:09:08;12.18;;;9.60;;
30173;SDS011;16985;50.814;8.530;2023-06-22T01:11:48;11.30;;;10.05;;
30173;SDS011;16985;50.814;8.530;2023-06-22T01:14:24;14.23;;;10.45;;
30173;SDS011;16985;50.814;8.530;2023-06-22T01:17:03;12.20;;;10.82;;
30173;SDS011;16985;50.814;8.530;2023-06-22T01:19:54;15.98;;;12.23;;
30173;SDS011;16985;50.814;8.530;2023-06-22T01:22:25;19.90;;;11.65;;
30173;SDS011;16985;50.814;8.530;2023-06-22T01:30:29;17.92;;;11.45;;
30173;SDS011;16985;50.814;8.530;2023-06-22T01:32:59;15.43;;;10.95;;
30173;SDS011;16985;50.814;8.530;2023-06-22T01:35:29;17.42;;;11.40;;
30173;SDS011;16985;50.814;8.530;2023-06-22T01:37:55;13.27;;;11.48;;
30173;SDS011;16985;50.814;8.530;2023-06-22T01:40:21;12.07;;;10.00;;
30173;SDS011;16985;50.814;8.530;2023-06-22T01:42:50;16.15;;;11.02;;
30173;SDS011;16985;50.814;8.530;2023-06-22T01:45:16;12.05;;;10.45;;
30173;SDS011;16985;50.814;8.530;2023-06-22T01:47:43;13.07;;;10.52;;
30173;SDS011;16985;50.814;8.530;2023-06-22T01:50:09;12.68;;;10.80;;
30173;SDS011;16985;50.814;8.530;2023-06-22T01:52:36;14.50;;;11.32;;
30173;SDS011;16985;50.814;8.530;2023-06-22T01:55:02;11.98;;;9.52;;
30173;SDS011;16985;50.814;8.530;2023-06-22T01:57:29;13.20;;;9.90;;
30173;SDS011;16985;50.814;8.530;2023-06-22T02:02:26;11.23;;;9.70;;
30173;SDS011;16985;50.814;8.530;2023-06-22T02:05:03;14.48;;;9.00;;
30173;SDS011;16985;50.814;8.530;2023-06-22T02:07:34;16.17;;;10.35;;
30173;SDS011;16985;50.814;8.530;2023-06-22T02:10:08;10.82;;;9.73;;
30173;SDS011;16985;50.814;8.530;2023-06-22T02:12:38;11.82;;;9.50;;
30173;SDS011;16985;50.814;8.530;2023-06-22T02:15:06;10.85;;;9.75;;
30173;SDS011;16985;50.814;8.530;2023-06-22T02:17:34;12.68;;;10.43;;
30173;SDS011;16985;50.814;8.530;2023-06-22T02:20:14;15.50;;;10.35;;
30173;SDS011;16985;50.814;8.530;2023-06-22T02:22:40;13.27;;;9.98;;
30173;SDS011;16985;50.814;8.530;2023-06-22T02:25:09;18.67;;;10.95;;
30173;SDS011;16985;50.814;8.530;2023-06-22T02:27:35;21.77;;;11.60;;
30173;SDS011;16985;50.814;8.530;2023-06-22T02:30:01;12.65;;;11.35;;
30173;SDS011;16985;50.814;8.530;2023-06-22T02:32:30;16.80;;;11.25;;
30173;SDS011;16985;50.814;8.530;2023-06-22T02:34:59;16.20;;;11.35;;
30173;SDS011;16985;50.814;8.530;2023-06-22T02:37:25;15.95;;;11.55;;
30173;SDS011;16985;50.814;8.530;2023-06-22T02:39:55;12.80;;;11.57;;
30173;SDS011;16985;50.814;8.530;2023-06-22T02:42:21;18.05;;;12.13;;
30173;SDS011;16985;50.814;8.530;2023-06-22T02:44:47;12.73;;;10.88;;
30173;SDS011;16985;50.814;8.530;2023-06-22T02:47:13;16.05;;;11.93;;
30173;SDS011;16985;50.814;8.530;2023-06-22T02:49:39;16.60;;;12.48;;
30173;SDS011;16985;50.814;8.530;2023-06-22T02:52:05;16.05;;;12.15;;
30173;SDS011;16985;50.814;8.530;2023-06-22T02:54:31;16.13;;;10.85;;
30173;SDS011;16985;50.814;8.530;2023-06-22T02:56:58;14.55;;;11.70;;
30173;SDS011;16985;50.814;8.530;2023-06-22T02:59:28;14.90;;;11.88;;
30173;SDS011;16985;50.814;8.530;2023-06-22T03:02:00;15.38;;;11.95;;
30173;SDS011;16985;50.814;8.530;2023-06-22T03:04:29;19.73;;;12.43;;
30173;SDS011;16985;50.814;8.530;2023-06-22T03:06:56;16.15;;;11.32;;
30173;SDS011;16985;50.814;8.530;2023-06-22T03:09:28;16.42;;;11.82;;
30173;SDS011;16985;50.814;8.530;2023-06-22T03:11:55;18.25;;;12.90;;
30173;SDS011;16985;50.814;8.530;2023-06-22T03:14:23;16.10;;;11.88;;
30173;SDS011;16985;50.814;8.530;2023-06-22T03:16:51;13.98;;;11.73;;
30173;SDS011;16985;50.814;8.530;2023-06-22T03:19:18;14.07;;;12.30;;
30173;SDS011;16985;50.814;8.530;2023-06-22T03:21:44;15.63;;;12.05;;
30173;SDS011;16985;50.814;8.530;2023-06-22T03:24:10;17.60;;;14.07;;
30173;SDS011;16985;50.814;8.530;2023-06-22T03:26:37;17.65;;;13.63;;
30173;SDS011;16985;50.814;8.530;2023-06-22T03:29:03;17.60;;;13.02;;
30173;SDS011;16985;50.814;8.530;2023-06-22T03:31:29;15.07;;;13.00;;
30173;SDS011;16985;50.814;8.530;2023-06-22T03:33:56;15.32;;;12.90;;
30173;SDS011;16985;50.814;8.530;2023-06-22T03:36:22;16.13;;;13.65;;
30173;SDS011;16985;50.814;8.530;2023-06-22T03:38:49;13.55;;;12.18;;
30173;SDS011;16985;50.814;8.530;2023-06-22T03:41:16;14.20;;;12.70;;
30173;SDS011;16985;50.814;8.530;2023-06-22T03:43:42;16.60;;;14.20;;
30173;SDS011;16985;50.814;8.530;2023-06-22T03:46:08;14.48;;;12.88;;
30173;SDS011;16985;50.814;8.530;2023-06-22T03:48:34;16.55;;;12.40;;
30173;SDS011;16985;50.814;8.530;2023-06-22T03:51:01;13.82;;;12.30;;
30173;SDS011;16985;50.814;8.530;2023-06-22T03:53:30;15.73;;;12.98;;
30173;SDS011;16985;50.814;8.530;2023-06-22T03:55:56;19.30;;;13.30;;
30173;SDS011;16985;50.814;8.530;2023-06-22T03:58:21;19.98;;;15.43;;
30173;SDS011;16985;50.814;8.530;2023-06-22T04:00:48;15.55;;;13.45;;
30173;SDS011;16985;50.814;8.530;2023-06-22T04:03:16;20.10;;;15.15;;
30173;SDS011;16985;50.814;8.530;2023-06-22T04:05:45;17.45;;;14.35;;
30173;SDS011;16985;50.814;8.530;2023-06-22T04:08:12;16.80;;;14.65;;
30173;SDS011;16985;50.814;8.530;2023-06-22T04:10:39;17.03;;;14.80;;
30173;SDS011;16985;50.814;8.530;2023-06-22T04:13:05;19.92;;;14.45;;
30173;SDS011;16985;50.814;8.530;2023-06-22T04:15:32;17.65;;;15.75;;
30173;SDS011;16985;50.814;8.530;2023-06-22T04:17:57;20.20;;;15.55;;
30173;SDS011;16985;50.814;8.530;2023-06-22T04:20:23;21.17;;;16.05;;
30173;SDS011;16985;50.814;8.530;2023-06-22T04:22:53;20.15;;;15.60;;
30173;SDS011;16985;50.814;8.530;2023-06-22T04:25:19;21.27;;;15.82;;
30173;SDS011;16985;50.814;8.530;2023-06-22T04:27:45;18.98;;;15.73;;
30173;SDS011;16985;50.814;8.530;2023-06-22T04:30:11;19.77;;;15.23;;
30173;SDS011;16985;50.814;8.530;2023-06-22T04:32:40;22.00;;;15.70;;
30173;SDS011;16985;50.814;8.530;2023-06-22T04:35:06;18.65;;;16.13;;
30173;SDS011;16985;50.814;8.530;2023-06-22T04:37:33;17.88;;;16.02;;
30173;SDS011;16985;50.814;8.530;2023-06-22T04:39:59;22.70;;;15.60;;
30173;SDS011;16985;50.814;8.530;2023-06-22T04:42:28;21.63;;;14.88;;
30173;SDS011;16985;50.814;8.530;2023-06-22T04:44:54;17.63;;;15.82;;
30173;SDS011;16985;50.814;8.530;2023-06-22T04:47:20;17.80;;;15.02;;
30173;SDS011;16985;50.814;8.530;2023-06-22T04:49:45;19.35;;;16.67;;
30173;SDS011;16985;50.814;8.530;2023-06-22T04:52:12;20.35;;;17.33;;
30173;SDS011;16985;50.814;8.530;2023-06-22T04:54:45;19.98;;;15.23;;
30173;SDS011;16985;50.814;8.530;2023-06-22T04:57:13;21.42;;;15.30;;
30173;SDS011;16985;50.814;8.530;2023-06-22T04:59:39;18.15;;;16.30;;
30173;SDS011;16985;50.814;8.530;2023-06-22T05:02:06;16.45;;;14.75;;
30173;SDS011;16985;50.814;8.530;2023-06-22T05:04:32;17.85;;;15.95;;
30173;SDS011;16985;50.814;8.530;2023-06-22T05:07:01;19.50;;;16.17;;
30173;SDS011;16985;50.814;8.530;2023-06-22T05:09:27;16.77;;;14.57;;
30173;SDS011;16985;50.814;8.530;2023-06-22T05:11:54;17.67;;;15.43;;
30173;SDS011;16985;50.814;8.530;2023-06-22T05:14:21;17.40;;;14.93;;
30173;SDS011;16985;50.814;8.530;2023-06-22T05:16:48;17.20;;;15.35;;
30173;SDS011;16985;50.814;8.530;2023-06-22T05:19:14;17.10;;;14.40;;
30173;SDS011;16985;50.814;8.530;2023-06-22T05:21:40;17.83;;;15.73;;
30173;SDS011;16985;50.814;8.530;2023-06-22T05:24:06;15.85;;;14.18;;
30173;SDS011;16985;50.814;8.530;2023-06-22T05:26:32;18.38;;;14.38;;
30173;SDS011;16985;50.814;8.530;2023-06-22T05:29:00;24.50;;;16.60;;
30173;SDS011;16985;50.814;8.530;2023-06-22T05:31:27;17.02;;;14.48;;
30173;SDS011;16985;50.814;8.530;2023-06-22T05:33:54;18.27;;;15.98;;
30173;SDS011;16985;50.814;8.530;2023-06-22T05:36:20;19.92;;;17.30;;
30173;SDS011;16985;50.814;8.530;2023-06-22T05:38:50;17.65;;;15.75;;
30173;SDS011;16985;50.814;8.530;2023-06-22T05:41:16;17.80;;;15.25;;
30173;SDS011;16985;50.814;8.530;2023-06-22T05:43:42;17.00;;;15.25;;
30173;SDS011;16985;50.814;8.530;2023-06-22T05:46:08;17.33;;;15.48;;
30173;SDS011;16985;50.814;8.530;2023-06-22T05:48:34;16.35;;;14.63;;
30173;SDS011;16985;50.814;8.530;2023-06-22T05:51:00;15.55;;;13.77;;
30173;SDS011;16985;50.814;8.530;2023-06-22T05:53:26;16.73;;;14.98;;
30173;SDS011;16985;50.814;8.530;2023-06-22T05:55:51;18.17;;;15.27;;
30173;SDS011;16985;50.814;8.530;2023-06-22T05:58:17;20.40;;;16.25;;
30173;SDS011;16985;50.814;8.530;2023-06-22T06:00:43;17.15;;;15.35;;
30173;SDS011;16985;50.814;8.530;2023-06-22T06:03:09;18.77;;;15.52;;
30173;SDS011;16985;50.814;8.530;2023-06-22T06:05:36;16.92;;;14.40;;
30173;SDS011;16985;50.814;8.530;2023-06-22T06:08:04;17.77;;;15.10;;
30173;SDS011;16985;50.814;8.530;2023-06-22T06:10:32;20.30;;;16.38;;
30173;SDS011;16985;50.814;8.530;2023-06-22T06:12:59;16.97;;;15.17;;
30173;SDS011;16985;50.814;8.530;2023-06-22T06:15:27;21.77;;;13.85;;
30173;SDS011;16985;50.814;8.530;2023-06-22T06:17:53;16.70;;;14.55;;
30173;SDS011;16985;50.814;8.530;2023-06-22T06:20:20;16.95;;;13.52;;
30173;SDS011;16985;50.814;8.530;2023-06-22T06:22:48;15.98;;;14.30;;
30173;SDS011;16985;50.814;8.530;2023-06-22T06:25:14;16.55;;;14.20;;
30173;SDS011;16985;50.814;8.530;2023-06-22T06:27:45;15.85;;;13.82;;
30173;SDS011;16985;50.814;8.530;2023-06-22T06:30:12;19.40;;;15.13;;
30173;SDS011;16985;50.814;8.530;2023-06-22T06:32:40;15.35;;;13.73;;
30173;SDS011;16985;50.814;8.530;2023-06-22T06:35:07;20.63;;;14.77;;
30173;SDS011;16985;50.814;8.530;2023-06-22T06:37:37;16.73;;;15.02;;
30173;SDS011;16985;50.814;8.530;2023-06-22T06:40:09;15.60;;;13.88;;
30173;SDS011;16985;50.814;8.530;2023-06-22T06:42:37;16.73;;;13.25;;
30173;SDS011;16985;50.814;8.530;2023-06-22T06:45:07;16.27;;;14.43;;
30173;SDS011;16985;50.814;8.530;2023-06-22T06:47:34;15.57;;;12.38;;
30173;SDS011;16985;50.814;8.530;2023-06-22T06:49:59;16.27;;;14.07;;
30173;SDS011;16985;50.814;8.530;2023-06-22T06:52:25;15.02;;;12.70;;
30173;SDS011;16985;50.814;8.530;2023-06-22T06:54:51;14.18;;;12.18;;
30173;SDS011;16985;50.814;8.530;2023-06-22T06:57:17;16.65;;;12.70;;
30173;SDS011;16985;50.814;8.530;2023-06-22T06:59:45;18.05;;;14.18;;
30173;SDS011;16985;50.814;8.530;2023-06-22T07:02:11;13.90;;;12.02;;
30173;SDS011;16985;50.814;8.530;2023-06-22T07:04:37;14.35;;;12.45;;
30173;SDS011;16985;50.814;8.530;2023-06-22T07:07:03;14.10;;;12.23;;
30173;SDS011;16985;50.814;8.530;2023-06-22T07:09:29;13.98;;;12.27;;
30173;SDS011;16985;50.814;8.530;2023-06-22T07:11:54;17.13;;;12.80;;
30173;SDS011;16985;50.814;8.530;2023-06-22T07:14:20;16.38;;;12.57;;
30173;SDS011;16985;50.814;8.530;2023-06-22T07:16:46;14.82;;;13.02;;
30173;SDS011;16985;50.814;8.530;2023-06-22T07:19:12;13.82;;;12.30;;
30173;SDS011;16985;50.814;8.530;2023-06-22T07:21:38;15.02;;;11.82;;
30173;SDS011;16985;50.814;8.530;2023-06-22T07:24:07;17.00;;;12.70;;
30173;SDS011;16985;50.814;8.530;2023-06-22T07:26:33;14.38;;;12.40;;
30173;SDS011;16985;50.814;8.530;2023-06-22T07:28:59;12.18;;;10.68;;
30173;SDS011;16985;50.814;8.530;2023-06-22T07:31:26;14.10;;;12.57;;
30173;SDS011;16985;50.814;8.530;2023-06-22T07:33:52;18.08;;;12.88;;
30173;SDS011;16985;50.814;8.530;2023-06-22T07:36:18;12.68;;;11.30;;
30173;SDS011;16985;50.814;8.530;2023-06-22T07:38:44;13.98;;;12.52;;
30173;SDS011;16985;50.814;8.530;2023-06-22T07:41:10;16.63;;;13.70;;
30173;SDS011;16985;50.814;8.530;2023-06-22T07:43:35;13.40;;;12.00;;
30173;SDS011;16985;50.814;8.530;2023-06-22T07:46:04;14.32;;;12.65;;
30173;SDS011;16985;50.814;8.530;2023-06-22T07:48:31;15.65;;;13.15;;
30173;SDS011;16985;50.814;8.530;2023-06-22T07:50:57;15.18;;;13.05;;
30173;SDS011;16985;50.814;8.530;2023-06-22T07:53:23;15.55;;;12.88;;
30173;SDS011;16985;50.814;8.530;2023-06-22T07:55:49;13.63;;;12.07;;
30173;SDS011;16985;50.814;8.530;2023-06-22T07:58:15;14.57;;;11.50;;
30173;SDS011;16985;50.814;8.530;2023-06-22T08:00:43;13.05;;;11.65;;
30173;SDS011;16985;50.814;8.530;2023-06-22T08:03:09;15.70;;;10.75;;
30173;SDS011;16985;50.814;8.530;2023-06-22T08:05:35;13.93;;;12.23;;
30173;SDS011;16985;50.814;8.530;2023-06-22T08:08:01;13.63;;;11.25;;
30173;SDS011;16985;50.814;8.530;2023-06-22T08:10:27;13.35;;;10.85;;
30173;SDS011;16985;50.814;8.530;2023-06-22T08:12:53;13.55;;;11.65;;
30173;SDS011;16985;50.814;8.530;2023-06-22T08:15:19;14.15;;;11.00;;
30173;SDS011;16985;50.814;8.530;2023-06-22T08:17:44;17.23;;;12.38;;
30173;SDS011;16985;50.814;8.530;2023-06-22T08:20:11;15.02;;;11.70;;
30173;SDS011;16985;50.814;8.530;2023-06-22T08:22:38;12.15;;;10.82;;
30173;SDS011;16985;50.814;8.530;2023-06-22T08:25:10;13.45;;;11.30;;
30173;SDS011;16985;50.814;8.530;2023-06-22T08:27:36;15.15;;;10.90;;
30173;SDS011;16985;50.814;8.530;2023-06-22T08:30:02;13.02;;;11.05;;
30173;SDS011;16985;50.814;8.530;2023-06-22T08:32:29;18.13;;;12.60;;
30173;SDS011;16985;50.814;8.530;2023-06-22T08:34:55;14.43;;;11.32;;
30173;SDS011;16985;50.814;8.530;2023-06-22T08:37:22;14.40;;;11.93;;
30173;SDS011;16985;50.814;8.530;2023-06-22T08:39:55;12.15;;;10.95;;
30173;SDS011;16985;50.814;8.530;2023-06-22T08:42:23;12.60;;;10.52;;
30173;SDS011;16985;50.814;8.530;2023-06-22T08:44:49;11.95;;;10.00;;
30173;SDS011;16985;50.814;8.530;2023-06-22T08:47:15;13.73;;;11.00;;
30173;SDS011;16985;50.814;8.530;2023-06-22T08:49:41;15.68;;;11.48;;
30173;SDS011;16985;50.814;8.530;2023-06-22T08:52:07;13.73;;;10.85;;
30173;SDS011;16985;50.814;8.530;2023-06-22T08:54:33;12.05;;;10.32;;
30173;SDS011;16985;50.814;8.530;2023-06-22T08:57:00;11.77;;;9.82;;
30173;SDS011;16985;50.814;8.530;2023-06-22T08:59:27;13.45;;;10.05;;
30173;SDS011;16985;50.814;8.530;2023-06-22T09:01:53;12.23;;;9.45;;
30173;SDS011;16985;50.814;8.530;2023-06-22T09:04:19;11.32;;;9.68;;
30173;SDS011;16985;50.814;8.530;2023-06-22T09:06:47;10.75;;;9.65;;
30173;SDS011;16985;50.814;8.530;2023-06-22T09:11:41;10.55;;;9.07;;
30173;SDS011;16985;50.814;8.530;2023-06-22T09:14:08;11.10;;;9.40;;
30173;SDS011;16985;50.814;8.530;2023-06-22T09:16:34;11.20;;;10.05;;
30173;SDS011;16985;50.814;8.530;2023-06-22T09:19:00;11.52;;;10.32;;
30173;SDS011;16985;50.814;8.530;2023-06-22T09:21:26;14.02;;;9.38;;
30173;SDS011;16985;50.814;8.530;2023-06-22T09:23:52;11.23;;;10.02;;
30173;SDS011;16985;50.814;8.530;2023-06-22T09:26:18;12.80;;;10.23;;
30173;SDS011;16985;50.814;8.530;2023-06-22T09:28:44;12.68;;;10.25;;
30173;SDS011;16985;50.814;8.530;2023-06-22T09:31:10;13.48;;;9.35;;
30173;SDS011;16985;50.814;8.530;2023-06-22T09:33:50;12.70;;;9.55;;
30173;SDS011;16985;50.814;8.530;2023-06-22T09:36:20;13.18;;;8.73;;
30173;SDS011;16985;50.814;8.530;2023-06-22T09:38:47;14.07;;;9.07;;
30173;SDS011;16985;50.814;8.530;2023-06-22T09:41:14;13.35;;;9.32;;
30173;SDS011;16985;50.814;8.530;2023-06-22T09:43:41;9.55;;;8.65;;
30173;SDS011;16985;50.814;8.530;2023-06-22T09:46:06;11.77;;;9.13;;
30173;SDS011;16985;50.814;8.530;2023-06-22T09:48:34;9.82;;;8.20;;
30173;SDS011;16985;50.814;8.530;2023-06-22T09:51:00;11.48;;;8.82;;
30173;SDS011;16985;50.814;8.530;2023-06-22T09:53:25;17.30;;;9.05;;
30173;SDS011;16985;50.814;8.530;2023-06-22T09:55:51;14.00;;;8.77;;
30173;SDS011;16985;50.814;8.530;2023-06-22T09:58:17;13.73;;;8.70;;
30173;SDS011;16985;50.814;8.530;2023-06-22T10:00:43;9.70;;;7.82;;
30173;SDS011;16985;50.814;8.530;2023-06-22T10:03:08;11.27;;;8.48;;
30173;SDS011;16985;50.814;8.530;2023-06-22T10:05:34;9.60;;;8.60;;
30173;SDS011;16985;50.814;8.530;2023-06-22T10:08:00;10.48;;;8.88;;
30173;SDS011;16985;50.814;8.530;2023-06-22T10:10:26;10.07;;;7.97;;
30173;SDS011;16985;50.814;8.530;2023-06-22T10:12:55;14.18;;;8.43;;
30173;SDS011;16985;50.814;8.530;2023-06-22T10:15:23;12.18;;;8.88;;
30173;SDS011;16985;50.814;8.530;2023-06-22T10:17:49;10.43;;;8.50;;
30173;SDS011;16985;50.814;8.530;2023-06-22T10:20:15;12.38;;;8.00;;
30173;SDS011;16985;50.814;8.530;2023-06-22T10:22:43;13.63;;;9.23;;
30173;SDS011;16985;50.814;8.530;2023-06-22T10:25:10;11.30;;;8.57;;
30173;SDS011;16985;50.814;8.530;2023-06-22T10:30:10;12.18;;;8.63;;
30173;SDS011;16985;50.814;8.530;2023-06-22T10:32:38;10.27;;;8.95;;
30173;SDS011;16985;50.814;8.530;2023-06-22T10:35:05;9.57;;;8.35;;
30173;SDS011;16985;50.814;8.530;2023-06-22T10:37:31;9.73;;;8.18;;
30173;SDS011;16985;50.814;8.530;2023-06-22T10:39:57;12.13;;;7.90;;
30173;SDS011;16985;50.814;8.530;2023-06-22T10:42:23;9.57;;;8.25;;
30173;SDS011;16985;50.814;8.530;2023-06-22T10:44:49;10.18;;;8.02;;
30173;SDS011;16985;50.814;8.530;2023-06-22T10:47:15;11.77;;;8.70;;
30173;SDS011;16985;50.814;8.530;2023-06-22T10:49:41;8.73;;;7.85;;
30173;SDS011;16985;50.814;8.530;2023-06-22T10:52:07;10.45;;;8.68;;
30173;SDS011;16985;50.814;8.530;2023-06-22T10:54:34;10.77;;;7.90;;
30173;SDS011;16985;50.814;8.530;2023-06-22T10:57:01;10.70;;;8.50;;
30173;SDS011;16985;50.814;8.530;2023-06-22T10:59:28;9.45;;;7.43;;
30173;SDS011;16985;50.814;8.530;2023-06-22T11:01:57;13.20;;;8.73;;
30173;SDS011;16985;50.814;8.530;2023-06-22T11:04:24;11.25;;;7.70;;
30173;SDS011;16985;50.814;8.530;2023-06-22T11:06:50;10.40;;;8.48;;
30173;SDS011;16985;50.814;8.530;2023-06-22T11:09:16;9.52;;;7.47;;
30173;SDS011;16985;50.814;8.530;2023-06-22T11:11:45;12.57;;;8.02;;
30173;SDS011;16985;50.814;8.530;2023-06-22T11:14:12;14.63;;;7.77;;
30173;SDS011;16985;50.814;8.530;2023-06-22T11:16:38;11.30;;;7.70;;
30173;SDS011;16985;50.814;8.530;2023-06-22T11:19:04;10.07;;;7.97;;
30173;SDS011;16985;50.814;8.530;2023-06-22T11:21:31;10.43;;;8.38;;
30173;SDS011;16985;50.814;8.530;2023-06-22T11:23:57;9.40;;;7.93;;
30173;SDS011;16985;50.814;8.530;2023-06-22T11:26:24;11.75;;;7.43;;
30173;SDS011;16985;50.814;8.530;2023-06-22T11:28:54;14.40;;;8.38;;
30173;SDS011;16985;50.814;8.530;2023-06-22T11:31:20;8.10;;;7.30;;
30173;SDS011;16985;50.814;8.530;2023-06-22T11:33:45;10.45;;;7.97;;
30173;SDS011;16985;50.814;8.530;2023-06-22T11:36:13;10.43;;;7.90;;
30173;SDS011;16985;50.814;8.530;2023-06-22T11:38:39;9.27;;;7.45;;
30173;SDS011;16985;50.814;8.530;2023-06-22T11:41:05;8.57;;;7.47;;
30173;SDS011;16985;50.814;8.530;2023-06-22T11:43:32;10.47;;;8.03;;
30173;SDS011;16985;50.814;8.530;2023-06-22T11:45:59;9.18;;;7.82;;
30173;SDS011;16985;50.814;8.530;2023-06-22T11:48:26;9.10;;;7.72;;
30173;SDS011;16985;50.814;8.530;2023-06-22T11:50:52;8.52;;;7.32;;
30173;SDS011;16985;50.814;8.530;2023-06-22T11:53:20;11.15;;;7.88;;
30173;SDS011;16985;50.814;8.530;2023-06-22T11:55:51;11.50;;;8.63;;
30173;SDS011;16985;50.814;8.530;2023-06-22T11:58:19;8.75;;;7.63;;
30173;SDS011;16985;50.814;8.530;2023-06-22T12:00:45;9.23;;;7.65;;
30173;SDS011;16985;50.814;8.530;2023-06-22T12:03:10;10.57;;;7.80;;
30173;SDS011;16985;50.814;8.530;2023-06-22T12:05:37;10.40;;;9.13;;
30173;SDS011;16985;50.814;8.530;2023-06-22T12:08:03;12.13;;;7.80;;
30173;SDS011;16985;50.814;8.530;2023-06-22T12:10:29;13.10;;;8.15;;
30173;SDS011;16985;50.814;8.530;2023-06-22T12:12:55;9.18;;;8.23;;
30173;SDS011;16985;50.814;8.530;2023-06-22T12:15:23;8.23;;;6.82;;
30173;SDS011;16985;50.814;8.530;2023-06-22T12:17:49;11.00;;;7.82;;
30173;SDS011;16985;50.814;8.530;2023-06-22T12:20:15;14.60;;;8.50;;
30173;SDS011;16985;50.814;8.530;2023-06-22T12:22:41;9.27;;;8.23;;
30173;SDS011;16985;50.814;8.530;2023-06-22T12:25:07;9.23;;;7.40;;
30173;SDS011;16985;50.814;8.530;2023-06-22T12:27:34;8.95;;;7.68;;
30173;SDS011;16985;50.814;8.530;2023-06-22T12:30:01;10.65;;;8.32;;
30173;SDS011;16985;50.814;8.530;2023-06-22T12:32:27;10.13;;;7.97;;
30173;SDS011;16985;50.814;8.530;2023-06-22T12:34:54;13.32;;;7.97;;
30173;SDS011;16985;50.814;8.530;2023-06-22T12:37:21;9.80;;;7.78;;
30173;SDS011;16985;50.814;8.530;2023-06-22T12:39:47;8.63;;;7.60;;
30173;SDS011;16985;50.814;8.530;2023-06-22T12:42:13;10.68;;;8.23;;
30173;SDS011;16985;50.814;8.530;2023-06-22T12:44:39;9.07;;;7.70;;
30173;SDS011;16985;50.814;8.530;2023-06-22T12:47:06;7.95;;;7.15;;
30173;SDS011;16985;50.814;8.530;2023-06-22T12:49:34;14.48;;;7.78;;
30173;SDS011;16985;50.814;8.530;2023-06-22T12:52:01;9.23;;;7.07;;
30173;SDS011;16985;50.814;8.530;2023-06-22T12:54:27;9.20;;;7.28;;
30173;SDS011;16985;50.814;8.530;2023-06-22T12:56:56;12.02;;;8.10;;
30173;SDS011;16985;50.814;8.530;2023-06-22T12:59:22;9.30;;;8.30;;
30173;SDS011;16985;50.814;8.530;2023-06-22T13:01:47;9.02;;;7.70;;
30173;SDS011;16985;50.814;8.530;2023-06-22T13:04:13;11.85;;;8.52;;
30173;SDS011;16985;50.814;8.530;2023-06-22T13:06:49;11.30;;;8.82;;
30173;SDS011;16985;50.814;8.530;2023-06-22T13:09:15;11.85;;;7.35;;
30173;SDS011;16985;50.814;8.530;2023-06-22T13:11:42;10.93;;;7.80;;
30173;SDS011;16985;50.814;8.530;2023-06-22T13:14:08;8.32;;;7.45;;
30173;SDS011;16985;50.814;8.530;2023-06-22T13:16:34;8.07;;;7.28;;
30173;SDS011;16985;50.814;8.530;2023-06-22T13:19:00;9.18;;;7.18;;
30173;SDS011;16985;50.814;8.530;2023-06-22T13:21:25;9.13;;;7.30;;
30173;SDS011;16985;50.814;8.530;2023-06-22T13:23:51;8.80;;;6.65;;
30173;SDS011;16985;50.814;8.530;2023-06-22T13:26:17;8.95;;;7.20;;
30173;SDS011;16985;50.814;8.530;2023-06-22T13:28:43;9.23;;;6.60;;
30173;SDS011;16985;50.814;8.530;2023-06-22T13:31:09;8.68;;;6.88;;
30173;SDS011;16985;50.814;8.530;2023-06-22T13:33:34;10.10;;;7.03;;
30173;SDS011;16985;50.814;8.530;2023-06-22T13:36:00;11.80;;;6.55;;
30173;SDS011;16985;50.814;8.530;2023-06-22T13:38:28;10.20;;;6.55;;
30173;SDS011;16985;50.814;8.530;2023-06-22T13:40:56;13.80;;;6.32;;
30173;SDS011;16985;50.814;8.530;2023-06-22T13:43:23;9.90;;;6.70;;
30173;SDS011;16985;50.814;8.530;2023-06-22T13:45:49;9.07;;;5.47;;
30173;SDS011;16985;50.814;8.530;2023-06-22T13:48:15;10.73;;;6.07;;
30173;SDS011;16985;50.814;8.530;2023-06-22T13:50:41;6.97;;;5.82;;
30173;SDS011;16985;50.814;8.530;2023-06-22T13:53:06;9.10;;;5.50;;
30173;SDS011;16985;50.814;8.530;2023-06-22T13:55:32;8.38;;;5.72;;
30173;SDS011;16985;50.814;8.530;2023-06-22T13:57:58;10.48;;;6.10;;
30173;SDS011;16985;50.814;8.530;2023-06-22T14:00:24;6.55;;;5.30;;
30173;SDS011;16985;50.814;8.530;2023-06-22T14:02:49;8.40;;;6.03;;
30173;SDS011;16985;50.814;8.530;2023-06-22T14:05:16;8.85;;;5.95;;
30173;SDS011;16985;50.814;8.530;2023-06-22T14:07:42;9.40;;;5.82;;
30173;SDS011;16985;50.814;8.530;2023-06-22T14:10:07;8.05;;;5.50;;
30173;SDS011;16985;50.814;8.530;2023-06-22T14:12:34;10.05;;;6.22;;
30173;SDS011;16985;50.814;8.530;2023-06-22T14:14:59;10.02;;;5.95;;
30173;SDS011;16985;50.814;8.530;2023-06-22T14:17:25;11.07;;;5.57;;
30173;SDS011;16985;50.814;8.530;2023-06-22T14:19:51;9.65;;;5.93;;
30173;SDS011;16985;50.814;8.530;2023-06-22T14:22:21;13.13;;;5.80;;
30173;SDS011;16985;50.814;8.530;2023-06-22T14:24:47;10.30;;;6.28;;
30173;SDS011;16985;50.814;8.530;2023-06-22T14:27:14;9.82;;;6.13;;
30173;SDS011;16985;50.814;8.530;2023-06-22T14:29:40;10.65;;;5.80;;
30173;SDS011;16985;50.814;8.530;2023-06-22T14:32:06;10.77;;;5.75;;
30173;SDS011;16985;50.814;8.530;2023-06-22T14:34:33;7.45;;;5.47;;
30173;SDS011;16985;50.814;8.530;2023-06-22T14:37:05;8.13;;;5.63;;
30173;SDS011;16985;50.814;8.530;2023-06-22T14:39:32;9.85;;;6.32;;
30173;SDS011;16985;50.814;8.530;2023-06-22T14:41:58;11.07;;;6.00;;